Time;durP1;ratioP1;P1;durP2;ratioP2;P2;SDS_P1;SDS_P2;PMS_P1;PMS_P2;Temp;Humidity;BMP_temperature;BMP_pressure;BME280_temperature;BME280_humidity;BME280_pressure;Samples;Min_cycle;Max_cycle;Signal;HPM_P1;HPM_P2
2022/11/20 00:02:53;;;;;;;11.68;10.48;;;;;;;3.00;73.25;100306.72;4934601;29;20509;-75
2022/11/20 00:06:06;;;;;;;11.82;10.02;;;;;;;2.85;74.96;100308.81;4934803;29;20135;-76
2022/11/20 00:09:09;;;;;;;14.07;11.05;;;;;;;2.88;74.07;100298.41;4934630;29;20094;-76
2022/11/20 00:12:13;;;;;;;12.20;10.00;;;;;;;2.79;74.78;100300.31;4942446;29;20178;-76
2022/11/20 00:15:19;;;;;;;12.90;10.20;;;;;;;2.78;74.71;100288.31;4943162;29;20124;-76
2022/11/20 00:18:23;;;;;;;13.63;11.50;;;;;;;2.66;74.48;100290.34;4942141;29;20063;-76
2022/11/20 00:21:28;;;;;;;13.10;11.05;;;;;;;2.60;75.83;100293.06;4943055;29;20066;-75
2022/11/20 00:24:31;;;;;;;15.27;12.57;;;;;;;2.69;74.61;100291.09;4929454;29;20113;-76
2022/11/20 00:27:34;;;;;;;;;;;;;;;2.67;75.77;100297.19;4943954;29;20046;-76
2022/11/20 00:30:44;;;;;;;14.38;11.63;;;;;;;2.59;76.77;100299.94;4943387;29;19925;-75
2022/11/20 00:33:51;;;;;;;16.23;12.05;;;;;;;2.74;76.43;100303.88;4942800;29;20082;-75
2022/11/20 00:36:54;;;;;;;14.23;11.73;;;;;;;2.82;75.03;100299.41;4943161;29;20042;-75
2022/11/20 00:39:57;;;;;;;14.30;12.50;;;;;;;2.91;75.26;100280.25;4941830;29;20046;-74
2022/11/20 00:43:01;;;;;;;15.18;12.20;;;;;;;2.78;77.17;100290.03;4929434;28;20112;-75
2022/11/20 00:46:08;;;;;;;13.43;10.68;;;;;;;2.72;77.33;100291.03;4944373;29;20046;-75
2022/11/20 00:49:11;;;;;;;16.13;11.38;;;;;;;3.08;76.12;100292.75;4945758;29;20138;-76
2022/11/20 00:52:14;;;;;;;13.57;11.27;;;;;;;2.97;77.14;100290.44;4945860;29;20090;-76
2022/11/20 00:55:18;;;;;;;14.43;11.55;;;;;;;2.89;77.40;100285.44;4943924;29;20046;-75
2022/11/20 00:58:21;;;;;;;;;;;;;;;2.79;76.36;100287.41;4945647;29;20047;-75
2022/11/20 01:01:31;;;;;;;11.63;10.35;;;;;;;2.66;76.77;100285.16;4946145;29;20312;-74
2022/11/20 01:04:34;;;;;;;15.38;12.68;;;;;;;2.52;76.75;100276.03;4947062;29;20620;-75
2022/11/20 01:07:37;;;;;;;16.88;12.18;;;;;;;2.75;77.47;100283.22;4946952;29;20046;-75
2022/11/20 01:10:40;;;;;;;14.30;11.70;;;;;;;2.94;76.07;100296.53;4945427;29;20042;-75
2022/11/20 01:13:54;;;;;;;17.33;13.13;;;;;;;2.73;75.75;100297.88;4945742;29;20042;-75
2022/11/20 01:16:58;;;;;;;21.25;15.13;;;;;;;2.91;75.92;100296.59;4945015;29;20054;-75
2022/11/20 01:20:02;;;;;;;20.30;14.38;;;;;;;3.07;75.52;100285.91;4945583;29;20058;-75
2022/11/20 01:23:05;;;;;;;14.95;12.70;;;;;;;3.05;75.01;100290.25;4945663;29;20122;-74
2022/11/20 01:26:11;;;;;;;15.85;12.07;;;;;;;2.65;76.62;100294.66;4946133;29;20498;-74
2022/11/20 01:29:18;;;;;;;14.80;12.38;;;;;;;2.80;78.00;100294.25;4946499;29;20170;-74
2022/11/20 01:32:21;;;;;;;14.55;12.40;;;;;;;2.85;76.04;100296.75;4945097;29;20050;-74
2022/11/20 01:35:25;;;;;;;14.50;11.43;;;;;;;2.79;76.86;100292.56;4945645;29;20438;-74
2022/11/20 01:38:29;;;;;;;13.30;10.98;;;;;;;2.75;76.51;100284.94;4945812;29;20046;-74
2022/11/20 01:44:59;;;;;;;13.60;11.15;;;;;;;2.68;75.92;100280.78;4945060;29;20066;-76
2022/11/20 01:48:03;;;;;;;14.30;11.68;;;;;;;2.73;76.43;100278.97;4931970;29;20122;-76
2022/11/20 01:51:15;;;;;;;13.40;11.70;;;;;;;2.89;77.29;100282.88;4944600;29;20509;-75
2022/11/20 01:54:30;;;;;;;13.85;11.77;;;;;;;2.96;77.54;100266.31;4943799;29;20062;-75
2022/11/20 01:57:35;;;;;;;15.40;12.57;;;;;;;2.87;78.88;100276.91;4943805;29;20038;-75
2022/11/20 02:00:40;;;;;;;13.98;11.98;;;;;;;2.88;77.04;100273.44;4944303;29;20043;-75
2022/11/20 02:03:53;;;;;;;14.82;12.63;;;;;;;2.96;76.82;100278.41;4944788;29;20054;-75
2022/11/20 02:07:01;;;;;;;15.15;12.77;;;;;;;2.75;77.52;100279.78;4945626;29;20191;-75
2022/11/20 02:10:05;;;;;;;15.00;12.82;;;;;;;2.83;77.33;100277.00;4933241;29;20066;-75
2022/11/20 02:16:39;;;;;;;17.40;12.70;;;;;;;3.02;77.19;100266.19;4945709;29;20045;-76
2022/11/20 02:19:42;;;;;;;14.13;12.60;;;;;;;2.70;77.33;100276.47;4944408;29;20125;-76
2022/11/20 02:22:56;;;;;;;16.13;12.10;;;;;;;2.60;77.34;100272.41;4944562;29;20047;-75
2022/11/20 02:26:04;;;;;;;15.23;11.65;;;;;;;2.88;77.07;100270.00;4943607;29;20050;-75
2022/11/20 02:29:08;;;;;;;17.10;13.45;;;;;;;2.95;77.29;100268.97;4945146;29;20525;-75
2022/11/20 02:32:26;;;;;;;15.88;12.73;;;;;;;2.87;77.65;100264.00;4945077;29;20054;-75
2022/11/20 02:35:30;;;;;;;14.00;12.38;;;;;;;2.91;77.20;100254.44;4945001;29;20070;-75
2022/11/20 02:38:33;;;;;;;;;;;;;;;2.93;77.66;100263.81;4945960;29;20102;-76
2022/11/20 02:41:40;;;;;;;15.88;12.93;;;;;;;2.99;77.28;100255.06;4945330;29;19941;-75
2022/11/20 02:44:44;;;;;;;13.15;11.45;;;;;;;2.84;76.37;100258.91;4943590;29;20095;-75
2022/11/20 02:47:47;;;;;;;;;;;;;;;2.77;77.43;100265.09;4955637;29;20071;-76
2022/11/20 02:50:49;;;;;;;14.50;12.13;;;;;;;2.76;76.45;100272.00;4954697;29;20352;-74
2022/11/20 02:53:53;;;;;;;14.88;12.20;;;;;;;2.90;76.72;100263.91;4954431;29;20089;-75
2022/11/20 02:56:57;;;;;;;;;;;;;;;2.82;76.84;100262.41;4954900;29;20043;-75
2022/11/20 03:00:00;;;;;;;14.00;11.40;;;;;;;2.79;77.12;100264.16;4954854;29;20024;-75
2022/11/20 03:03:04;;;;;;;13.77;11.93;;;;;;;2.62;78.04;100258.59;4954457;29;20441;-75
2022/11/20 03:06:07;;;;;;;16.02;13.35;;;;;;;2.87;76.48;100251.09;4954297;28;20050;-74
2022/11/20 03:09:14;;;;;;;13.65;12.18;;;;;;;2.76;76.95;100245.31;4954791;29;20050;-74
2022/11/20 03:12:17;;;;;;;15.43;11.90;;;;;;;2.74;77.40;100242.81;4954853;29;20042;-74
2022/11/20 03:15:21;;;;;;;;;;;;;;;2.78;77.20;100246.16;4955032;29;20560;-75
2022/11/20 03:18:24;;;;;;;14.60;12.40;;;;;;;2.84;77.34;100243.41;4954565;29;19981;-75
2022/11/20 03:21:27;;;;;;;14.73;12.10;;;;;;;2.67;77.44;100240.38;4954091;29;20050;-75
2022/11/20 03:24:30;;;;;;;;;;;;;;;2.65;77.16;100247.31;4954490;29;20101;-75
2022/11/20 03:27:34;;;;;;;15.05;12.15;;;;;;;2.65;76.72;100244.72;4954475;29;19925;-75
2022/11/20 03:30:38;;;;;;;15.40;12.93;;;;;;;2.66;77.23;100246.44;4954179;29;20587;-75
2022/11/20 03:33:42;;;;;;;14.95;13.25;;;;;;;2.77;76.77;100239.28;4954152;29;20106;-75
2022/11/20 03:36:45;;;;;;;14.82;12.70;;;;;;;2.88;76.08;100237.28;4954147;29;20049;-75
2022/11/20 03:39:49;;;;;;;;;;;;;;;3.05;75.68;100220.50;4954272;29;20062;-75
2022/11/20 03:42:52;;;;;;;14.40;12.38;;;;;;;2.75;76.93;100225.56;4954249;29;19940;-76
2022/11/20 03:45:56;;;;;;;14.90;12.15;;;;;;;2.78;77.16;100233.25;4915710;29;20059;-76
2022/11/20 03:49:00;;;;;;;15.60;12.32;;;;;;;2.94;76.31;100226.78;4915874;29;20103;-76
2022/11/20 03:52:04;;;;;;;16.77;14.00;;;;;;;2.80;76.61;100234.03;4915904;29;20107;-75
2022/11/20 03:55:07;;;;;;;17.40;13.68;;;;;;;2.67;76.80;100236.06;4915738;29;20046;-76
2022/11/20 03:58:13;;;;;;;15.25;13.18;;;;;;;2.67;77.18;100235.22;4915906;29;20585;-76
2022/11/20 04:01:21;;;;;;;15.43;13.18;;;;;;;2.93;76.82;100242.31;4915740;29;20055;-76
2022/11/20 04:04:27;;;;;;;15.10;12.68;;;;;;;2.91;76.36;100241.53;4915630;29;20047;-75
2022/11/20 04:07:31;;;;;;;;;;;;;;;2.98;75.78;100241.31;4916045;29;20051;-75
2022/11/20 04:10:34;;;;;;;15.77;13.38;;;;;;;2.90;75.49;100232.91;4915771;29;19970;-75
2022/11/20 04:13:38;;;;;;;17.80;14.00;;;;;;;3.03;75.16;100239.47;4915912;29;20071;-76
2022/11/20 04:16:42;;;;;;;17.65;13.85;;;;;;;2.83;75.64;100226.22;4915814;29;20070;-75
2022/11/20 04:19:46;;;;;;;20.10;14.82;;;;;;;3.00;75.16;100229.22;4915109;29;20070;-76
2022/11/20 04:22:49;;;;;;;19.23;14.00;;;;;;;2.84;76.98;100233.09;4915635;29;20051;-76
2022/11/20 04:25:52;;;;;;;20.60;15.60;;;;;;;2.93;76.93;100222.50;4915507;29;20066;-76
2022/11/20 04:28:58;;;;;;;23.13;14.55;;;;;;;2.86;75.81;100226.13;4915454;29;20099;-75
2022/11/20 04:32:02;;;;;;;22.40;14.70;;;;;;;2.85;76.41;100226.19;4914725;29;20474;-75
2022/11/20 04:35:05;;;;;;;20.65;14.73;;;;;;;2.84;76.83;100225.34;4915138;29;20046;-75
2022/11/20 04:38:09;;;;;;;19.20;15.68;;;;;;;2.83;76.48;100221.03;4915254;29;20446;-75
2022/11/20 04:41:15;;;;;;;;;;;;;;;2.60;77.96;100225.94;4915796;29;20062;-76
2022/11/20 04:44:18;;;;;;;19.42;13.90;;;;;;;2.78;77.26;100230.66;4927863;29;19929;-76
2022/11/20 04:47:22;;;;;;;19.63;15.20;;;;;;;2.76;77.05;100230.69;4953214;29;20105;-76
2022/11/20 04:50:25;;;;;;;22.08;15.70;;;;;;;2.97;76.78;100229.31;4953664;29;20465;-76
2022/11/20 04:53:28;;;;;;;23.55;17.73;;;;;;;2.85;76.63;100229.63;4953802;29;20050;-76
2022/11/20 04:56:34;;;;;;;;;;;;;;;2.84;76.81;100224.47;4953795;29;20468;-76
2022/11/20 04:59:38;;;;;;;21.83;15.07;;;;;;;2.67;77.55;100224.91;4953339;29;19921;-76
2022/11/20 05:02:42;;;;;;;22.13;16.08;;;;;;;2.61;78.02;100225.88;4953121;29;20466;-76
2022/11/20 05:05:46;;;;;;;18.83;14.27;;;;;;;2.63;78.51;100212.97;4953242;29;20508;-76
2022/11/20 05:08:49;;;;;;;;;;;;;;;2.63;78.29;100207.78;4953880;29;20200;-75
2022/11/20 05:11:53;;;;;;;23.57;17.30;;;;;;;2.55;78.71;100208.84;4953538;29;19925;-76
2022/11/20 05:14:56;;;;;;;21.67;15.35;;;;;;;2.76;78.91;100204.03;4953311;29;20781;-76
2022/11/20 05:17:59;;;;;;;22.70;16.27;;;;;;;2.85;78.44;100208.94;4953290;29;20054;-75
2022/11/20 05:21:04;;;;;;;28.65;18.40;;;;;;;2.87;77.72;100216.66;4953013;29;20050;-75
2022/11/20 05:24:07;;;;;;;26.88;17.45;;;;;;;2.96;77.56;100212.09;4953093;29;20151;-75
2022/11/20 05:27:10;;;;;;;;;;;;;;;2.88;77.20;100208.88;4953269;29;20493;-75
2022/11/20 05:30:14;;;;;;;21.63;16.35;;;;;;;2.81;77.36;100207.34;4953510;28;20435;-75
2022/11/20 05:33:17;;;;;;;26.73;20.30;;;;;;;2.65;78.09;100203.44;4955906;29;20050;-76
2022/11/20 05:36:20;;;;;;;22.83;17.25;;;;;;;2.79;78.31;100202.19;4955987;29;20568;-76
2022/11/20 05:39:27;;;;;;;29.20;17.35;;;;;;;2.53;78.38;100196.84;4956369;29;20061;-75
2022/11/20 05:42:31;;;;;;;;;;;;;;;2.58;79.21;100207.06;4956609;29;20508;-76
2022/11/20 05:45:35;;;;;;;23.45;16.52;;;;;;;2.55;79.43;100202.81;4955826;29;19930;-76
2022/11/20 05:48:46;;;;;;;25.15;17.90;;;;;;;2.48;78.93;100193.53;4956253;29;20086;-75
2022/11/20 05:51:49;;;;;;;24.25;18.13;;;;;;;2.40;80.16;100196.31;4955992;29;20086;-76
2022/11/20 05:54:52;;;;;;;;;;;;;;;2.44;79.81;100187.59;4956496;29;20043;-75
2022/11/20 05:58:01;;;;;;;26.35;17.98;;;;;;;2.54;80.59;100188.22;4956116;29;19941;-76
2022/11/20 06:01:17;;;;;;;25.58;18.02;;;;;;;2.76;80.59;100184.22;4955676;29;20151;-75
2022/11/20 06:04:20;;;;;;;26.52;18.95;;;;;;;2.88;79.81;100182.22;4955120;29;20054;-76
2022/11/20 06:07:24;;;;;;;27.67;18.33;;;;;;;2.90;79.90;100181.25;4955113;29;20050;-76
2022/11/20 06:10:27;;;;;;;26.60;18.30;;;;;;;2.62;80.88;100190.63;4955766;29;20042;-76
2022/11/20 06:13:30;;;;;;;22.52;17.20;;;;;;;2.58;80.65;100187.25;4955680;29;20470;-76
2022/11/20 06:16:34;;;;;;;;;;;;;;;2.62;79.39;100195.78;4956074;29;20042;-76
2022/11/20 06:19:37;;;;;;;24.02;17.02;;;;;;;2.64;79.67;100192.25;4955442;29;20488;-75
2022/11/20 06:22:40;;;;;;;26.67;18.25;;;;;;;2.84;78.83;100202.09;4955431;29;20058;-75
2022/11/20 06:25:47;;;;;;;27.23;19.75;;;;;;;3.02;79.36;100193.84;4955402;29;20142;-75
2022/11/20 06:28:51;;;;;;;;;;;;;;;3.03;79.24;100192.97;4955715;29;20512;-75
2022/11/20 06:31:58;;;;;;;24.20;17.30;;;;;;;2.79;79.32;100199.63;4955034;29;19937;-75
2022/11/20 06:35:01;;;;;;;24.52;17.98;;;;;;;2.65;80.26;100196.56;4931576;29;20051;-76
2022/11/20 06:38:04;;;;;;;29.20;19.52;;;;;;;2.66;80.46;100193.06;4598125;29;9999715;-75
2022/11/20 06:41:17;;;;;;;27.05;18.45;;;;;;;2.66;80.42;100192.22;4949827;28;20058;-75
2022/11/20 06:44:20;;;;;;;26.38;19.75;;;;;;;2.76;79.83;100198.84;4930947;29;20422;-75
2022/11/20 06:47:27;;;;;;;26.40;19.77;;;;;;;2.54;82.24;100198.53;4930968;29;20047;-75
2022/11/20 06:50:30;;;;;;;30.33;20.20;;;;;;;2.66;82.29;100197.41;4938402;29;20051;-75
2022/11/20 06:53:34;;;;;;;;;;;;;;;2.64;82.20;100200.00;4950916;29;20062;-75
2022/11/20 06:56:37;;;;;;;33.10;21.02;;;;;;;2.67;82.38;100204.25;4950167;29;20392;-75
2022/11/20 06:59:40;;;;;;;28.83;21.05;;;;;;;2.89;81.36;100210.56;4950416;29;20098;-75
2022/11/20 07:02:44;;;;;;;32.15;22.02;;;;;;;2.52;82.88;100206.34;4941923;29;20433;-75
2022/11/20 07:05:47;;;;;;;30.88;21.58;;;;;;;2.58;82.54;100215.63;4930374;29;20050;-76
2022/11/20 07:08:52;;;;;;;;;;;;;;;2.58;82.64;100220.81;4930830;29;20042;-75
2022/11/20 07:11:55;;;;;;;33.60;21.52;;;;;;;2.80;82.99;100231.44;4946735;29;19985;-75
2022/11/20 07:14:58;;;;;;;;;;;;;;;2.75;83.88;100223.84;4950405;29;20193;-75
2022/11/20 07:18:02;;;;;;;29.00;19.10;;;;;;;2.78;83.48;100226.34;4933663;29;19922;-75
2022/11/20 07:21:06;;;;;;;;;;;;;;;2.65;83.34;100229.25;4931802;29;20090;-75
2022/11/20 07:24:09;;;;;;;30.00;19.95;;;;;;;2.71;82.84;100223.94;4930791;29;19930;-75
2022/11/20 07:27:13;;;;;;;27.92;19.30;;;;;;;2.70;83.69;100225.66;4930132;29;20478;-76
2022/11/20 07:30:18;;;;;;;31.85;21.25;;;;;;;2.94;82.93;100224.22;4930178;29;20493;-75
2022/11/20 07:33:21;;;;;;;29.58;21.85;;;;;;;2.77;83.92;100221.19;4930092;29;20517;-76
2022/11/20 07:36:24;;;;;;;32.20;21.65;;;;;;;2.99;83.31;100232.66;4930916;29;20030;-75
2022/11/20 07:39:28;;;;;;;27.40;19.85;;;;;;;2.79;83.66;100234.94;4930794;29;20363;-76
2022/11/20 07:42:31;;;;;;;;;;;;;;;2.82;83.53;100229.69;4930585;29;20117;-75
2022/11/20 07:45:35;;;;;;;30.33;18.90;;;;;;;2.82;82.89;100245.19;4928665;29;20308;-76
2022/11/20 07:48:40;;;;;;;30.92;19.67;;;;;;;2.70;83.22;100251.47;4929996;29;20082;-77
2022/11/20 07:51:43;;;;;;;41.72;24.48;;;;;;;2.73;83.76;100247.97;4929551;29;20054;-77
2022/11/20 07:54:46;;;;;;;29.77;22.42;;;;;;;2.77;83.55;100245.28;4929838;29;20220;-76
2022/11/20 07:57:55;;;;;;;25.98;18.65;;;;;;;2.80;84.24;100245.19;4930648;29;20132;-77
2022/11/20 08:01:06;;;;;;;31.63;22.70;;;;;;;2.71;83.63;100254.91;4932924;29;20786;-77
2022/11/20 08:04:11;;;;;;;27.95;20.70;;;;;;;2.82;83.78;100260.66;4930277;29;20553;-76
2022/11/20 08:07:14;;;;;;;30.88;20.77;;;;;;;2.83;83.40;100256.34;4929528;29;20138;-76
2022/11/20 08:10:17;;;;;;;30.60;20.75;;;;;;;2.93;83.03;100256.06;4929324;29;20105;-76
2022/11/20 08:16:45;;;;;;;31.45;22.83;;;;;;;2.92;82.17;100259.56;4930105;29;20046;-75
2022/11/20 08:19:48;;;;;;;28.38;20.27;;;;;;;3.00;82.58;100247.31;4929614;29;20067;-74
2022/11/20 08:22:52;;;;;;;35.47;23.48;;;;;;;3.10;82.72;100249.66;4937495;29;20050;-76
2022/11/20 08:25:55;;;;;;;;;;;;;;;3.30;81.83;100247.38;4929272;29;20047;-76
2022/11/20 08:28:59;;;;;;;28.20;20.52;;;;;;;3.30;81.58;100260.31;4927745;29;19922;-76
2022/11/20 08:32:07;;;;;;;33.90;22.90;;;;;;;3.29;80.63;100256.03;4935383;29;20502;-75
2022/11/20 08:35:11;;;;;;;35.78;22.30;;;;;;;3.27;81.88;100252.63;4917401;29;20047;-77
2022/11/20 08:38:15;;;;;;;32.20;22.27;;;;;;;3.20;81.28;100264.03;4909592;29;20043;-75
2022/11/20 08:41:25;;;;;;;32.70;21.02;;;;;;;3.26;81.74;100266.44;4933253;29;20051;-75
2022/11/20 08:44:28;;;;;;;31.60;21.38;;;;;;;3.31;82.15;100269.75;4932390;29;20146;-74
2022/11/20 08:47:31;;;;;;;48.30;35.72;;;;;;;3.42;81.22;100257.41;4933595;29;20062;-76
2022/11/20 08:50:35;;;;;;;38.38;26.02;;;;;;;3.47;81.65;100254.66;4932300;29;20082;-76
2022/11/20 08:53:39;;;;;;;31.48;20.80;;;;;;;3.14;82.28;100266.75;4934207;29;20050;-75
2022/11/20 08:56:42;;;;;;;31.17;21.45;;;;;;;3.23;82.69;100261.34;4934869;29;20038;-76
2022/11/20 08:59:45;;;;;;;33.58;23.02;;;;;;;3.57;81.83;100255.25;4941121;29;20611;-75
2022/11/20 09:02:49;;;;;;;30.10;21.73;;;;;;;3.54;82.24;100255.34;4929294;29;20515;-75
2022/11/20 09:06:06;;;;;;;33.60;21.55;;;;;;;3.53;82.25;100259.66;4937315;29;20046;-75
2022/11/20 09:09:09;;;;;;;31.88;22.35;;;;;;;3.77;81.83;100252.13;4932517;29;20045;-75
2022/11/20 09:12:12;;;;;;;31.02;20.83;;;;;;;3.73;81.84;100261.69;4932167;29;20058;-76
2022/11/20 09:15:16;;;;;;;;;;;;;;;3.67;82.75;100247.22;4945863;29;20046;-75
2022/11/20 09:18:20;;;;;;;33.15;22.50;;;;;;;3.84;81.20;100249.31;4932017;29;19942;-76
2022/11/20 09:21:24;;;;;;;31.50;20.85;;;;;;;3.70;82.35;100251.44;4932448;29;20103;-74
2022/11/20 09:24:27;;;;;;;30.63;20.83;;;;;;;3.74;82.65;100253.06;4933296;29;20099;-76
2022/11/20 09:27:31;;;;;;;;;;;;;;;3.78;83.31;100248.66;4944904;29;20050;-73
2022/11/20 09:30:35;;;;;;;31.13;21.73;;;;;;;3.80;83.02;100246.84;4933149;29;19924;-74
2022/11/20 09:33:38;;;;;;;32.80;23.08;;;;;;;3.73;84.07;100246.19;4931460;29;20050;-75
2022/11/20 09:41:04;;;;;;;29.90;20.88;;;;;;;3.71;84.07;100251.41;4933195;29;19947;-75
2022/11/20 09:44:27;;;;;;;27.95;20.00;;;;;;;3.83;83.11;100252.81;4933812;29;20171;-75
2022/11/20 09:47:59;;;;;;;30.60;20.42;;;;;;;3.89;82.64;100260.41;4932263;29;20042;-77
2022/11/20 09:51:24;;;;;;;33.60;21.63;;;;;;;3.85;83.71;100253.59;4939839;29;20050;-77
2022/11/20 09:54:35;;;;;;;32.47;21.48;;;;;;;4.12;82.29;100258.88;4939209;29;20131;-77
2022/11/20 09:57:42;;;;;;;31.45;21.80;;;;;;;4.17;82.67;100252.63;4942846;29;20035;-77
2022/11/20 10:00:48;;;;;;;28.25;20.10;;;;;;;4.15;82.58;100243.25;4942112;29;20055;-75
2022/11/20 10:04:17;;;;;;;25.77;18.58;;;;;;;4.12;83.07;100253.69;4941338;29;20097;-77
2022/11/20 10:07:27;;;;;;;31.20;20.50;;;;;;;4.08;84.38;100246.88;4940435;29;20042;-77
2022/11/20 10:10:56;;;;;;;31.38;22.45;;;;;;;4.25;84.04;100243.81;4944719;29;20094;-76
2022/11/20 10:13:59;;;;;;;31.20;20.90;;;;;;;4.23;nan;100236.06;4940350;29;20125;-76
2022/11/20 10:17:09;;;;;;;27.30;20.00;;;;;;;3.63;86.17;100224.91;4941813;28;20094;-83
2022/11/20 10:20:20;;;;;;;26.30;18.92;;;;;;;3.83;85.75;100224.34;4942941;29;20069;-78
2022/11/20 10:24:02;;;;;;;33.47;23.60;;;;;;;3.93;85.96;100212.84;4945104;29;20051;-78
2022/11/20 10:27:29;;;;;;;27.40;19.38;;;;;;;4.13;84.77;100219.16;4945442;29;20059;-75
2022/11/20 10:30:40;;;;;;;29.23;19.23;;;;;;;4.17;84.06;100218.16;4945783;29;20171;-74
2022/11/20 10:33:46;;;;;;;27.45;19.73;;;;;;;4.20;84.05;100212.88;4930063;29;20070;-73
2022/11/20 10:37:03;;;;;;;41.88;19.70;;;;;;;4.27;83.51;100214.38;4941190;29;20456;-73
2022/11/20 10:40:18;;;;;;;29.95;22.00;;;;;;;4.42;83.33;100211.31;4938500;29;20458;-80
2022/11/20 10:43:31;;;;;;;25.73;18.85;;;;;;;4.54;82.72;100206.66;4940185;29;20051;-72
2022/11/20 10:46:45;;;;;;;23.70;17.70;;;;;;;4.49;82.42;100201.59;4941741;29;20078;-72
2022/11/20 10:49:53;;;;;;;30.40;21.27;;;;;;;4.73;82.04;100199.97;4944858;29;20066;-73
2022/11/20 10:53:24;;;;;;;25.83;19.63;;;;;;;4.82;81.37;100191.03;4944914;29;20046;-73
2022/11/20 10:56:33;;;;;;;28.55;18.20;;;;;;;4.81;81.77;100195.34;4947741;29;20592;-73
2022/11/20 11:00:13;;;;;;;26.95;18.70;;;;;;;4.78;81.43;100184.25;4943744;29;20095;-74
2022/11/20 11:03:25;;;;;;;23.92;17.65;;;;;;;4.89;81.35;100189.94;4943448;29;20083;-74
2022/11/20 11:06:40;;;;;;;24.15;19.52;;;;;;;4.97;81.43;100187.06;4945234;29;20557;-75
2022/11/20 11:09:48;;;;;;;24.60;17.08;;;;;;;4.94;81.37;100176.81;4934679;29;20066;-74
2022/11/20 11:12:52;;;;;;;25.73;17.70;;;;;;;5.07;81.78;100165.09;4947408;29;20050;-76
2022/11/20 11:15:56;;;;;;;25.42;19.30;;;;;;;5.22;81.19;100166.31;4943540;29;20577;-75
2022/11/20 11:19:12;;;;;;;22.75;16.60;;;;;;;5.13;81.53;100164.91;4936062;29;20074;-74
2022/11/20 11:22:18;;;;;;;20.63;16.73;;;;;;;5.28;80.25;100161.75;4935367;29;20131;-73
2022/11/20 11:25:30;;;;;;;20.70;15.40;;;;;;;5.48;79.52;100157.59;4939149;29;20050;-76
2022/11/20 11:28:34;;;;;;;20.23;16.02;;;;;;;5.50;80.30;100160.97;4938597;29;20127;-74
2022/11/20 11:31:37;;;;;;;20.20;15.50;;;;;;;5.69;80.86;100145.56;4938222;29;20039;-74
2022/11/20 11:34:41;;;;;;;18.83;13.75;;;;;;;5.45;81.59;100142.97;4941030;29;20094;-74
2022/11/20 11:37:46;;;;;;;20.33;15.38;;;;;;;5.50;80.54;100145.41;4938054;29;20042;-76
2022/11/20 11:40:53;;;;;;;18.67;14.77;;;;;;;5.63;80.77;100131.09;4940610;29;20098;-74
2022/11/20 11:47:43;;;;;;;18.02;13.40;;;;;;;5.20;81.69;100137.88;4941439;29;20054;-75
2022/11/20 11:50:51;;;;;;;17.08;12.88;;;;;;;5.11;82.50;100140.78;4939878;29;20090;-75
2022/11/20 11:53:58;;;;;;;16.77;13.38;;;;;;;5.25;81.96;100137.69;4940047;29;20042;-74
2022/11/20 11:57:10;;;;;;;16.45;12.93;;;;;;;5.31;81.36;100127.94;4929159;29;20338;-74
2022/11/20 12:00:16;;;;;;;18.30;14.55;;;;;;;5.51;80.34;100127.19;4941950;29;20546;-74
2022/11/20 12:03:27;;;;;;;17.42;13.95;;;;;;;5.71;80.08;100108.31;4942528;29;20042;-75
2022/11/20 12:06:32;;;;;;;18.73;14.13;;;;;;;5.64;80.33;100106.81;4943970;29;20397;-75
2022/11/20 12:09:43;;;;;;;17.30;13.52;;;;;;;5.51;80.25;100100.41;4942108;29;20566;-77
2022/11/20 12:12:54;;;;;;;18.10;13.75;;;;;;;5.57;80.69;100098.44;4947591;29;20066;-76
2022/11/20 12:15:59;;;;;;;16.80;12.80;;;;;;;5.52;81.41;100089.13;4942359;29;20042;-77
2022/11/20 12:19:12;;;;;;;14.48;11.85;;;;;;;5.51;80.95;100093.47;4930096;29;20090;-76
2022/11/20 12:22:39;;;;;;;16.33;12.88;;;;;;;5.35;83.02;100085.44;4945655;29;20038;-77
2022/11/20 12:25:46;;;;;;;15.50;12.07;;;;;;;5.41;81.88;100075.75;4941613;29;20121;-77
2022/11/20 12:28:55;;;;;;;18.95;13.50;;;;;;;5.32;82.59;100072.59;4946417;29;20126;-77
2022/11/20 12:32:36;;;;;;;16.67;12.80;;;;;;;5.29;82.69;100080.47;4941119;29;20065;-77
2022/11/20 12:36:19;;;;;;;16.38;12.40;;;;;;;5.13;84.35;100080.22;4945910;29;20504;-77
2022/11/20 12:39:25;;;;;;;16.63;13.35;;;;;;;5.42;83.68;100070.50;4943355;29;20086;-76
2022/11/20 12:46:25;;;;;;;16.98;12.18;;;;;;;5.41;83.98;100061.03;4944405;29;20549;-74
2022/11/20 12:49:55;;;;;;;16.73;11.77;;;;;;;5.37;85.86;100062.06;4948985;29;20417;-75
2022/11/20 12:53:15;;;;;;;16.23;12.82;;;;;;;5.50;85.90;100062.44;4945057;29;20178;-76
2022/11/20 12:56:47;;;;;;;14.82;11.63;;;;;;;5.42;85.99;100060.13;4952380;29;20083;-75
2022/11/20 13:00:16;;;;;;;18.42;13.05;;;;;;;5.57;85.68;100048.31;4943828;29;20055;-75
2022/11/20 13:03:32;;;;;;;16.27;12.43;;;;;;;5.58;85.49;100045.69;4944445;29;20089;-75
2022/11/20 13:06:36;;;;;;;15.40;11.85;;;;;;;5.51;85.51;100052.00;4954861;29;20834;-75
2022/11/20 13:09:48;;;;;;;15.60;12.50;;;;;;;5.54;85.42;100044.09;4946817;29;20601;-74
2022/11/20 13:13:00;;;;;;;14.68;11.60;;;;;;;5.49;86.19;100042.59;4947340;29;20045;-74
2022/11/20 13:16:10;;;;;;;15.45;12.48;;;;;;;5.70;85.24;100044.34;4949705;29;20456;-73
2022/11/20 13:19:17;;;;;;;17.65;12.77;;;;;;;5.58;85.93;100035.31;4956048;29;20140;-73
2022/11/20 13:22:45;;;;;;;13.45;10.65;;;;;;;5.69;85.09;100032.28;4940753;29;20532;-74
2022/11/20 13:25:53;;;;;;;14.98;12.38;;;;;;;5.79;85.18;100025.81;4947888;29;20122;-75
2022/11/20 13:29:18;;;;;;;19.33;13.98;;;;;;;5.68;84.71;100028.00;4941317;29;20187;-75
2022/11/20 13:32:32;;;;;;;13.30;10.75;;;;;;;5.58;86.25;100017.16;4939812;29;20050;-75
2022/11/20 13:35:41;;;;;;;16.35;11.90;;;;;;;5.57;86.46;100022.38;4946175;29;20046;-75
2022/11/20 13:38:53;;;;;;;16.17;11.82;;;;;;;5.55;87.42;100022.47;4939956;29;20187;-76
2022/11/20 13:41:59;;;;;;;15.38;10.82;;;;;;;5.70;86.48;100015.81;4943403;29;20055;-75
2022/11/20 13:45:10;;;;;;;15.73;11.60;;;;;;;5.78;86.52;99999.94;4941129;29;20070;-75
2022/11/20 13:48:21;;;;;;;14.75;10.65;;;;;;;5.73;86.48;100013.09;4941114;29;20554;-75
2022/11/20 13:51:43;;;;;;;13.98;10.82;;;;;;;5.69;86.75;100005.50;4943709;29;20529;-76
2022/11/20 13:54:54;;;;;;;14.35;10.95;;;;;;;5.63;86.72;99991.03;4939441;29;20050;-76
2022/11/20 13:58:18;;;;;;;14.00;10.80;;;;;;;5.78;86.40;99977.44;4942906;29;20054;-77
2022/11/20 14:01:31;;;;;;;14.05;10.85;;;;;;;5.77;87.11;99978.31;4938017;29;20119;-75
2022/11/20 14:04:45;;;;;;;15.32;11.90;;;;;;;5.59;87.79;99984.28;4937292;29;20130;-76
2022/11/20 14:07:53;;;;;;;15.18;10.70;;;;;;;5.60;88.10;99975.59;4944012;29;20050;-76
2022/11/20 14:11:15;;;;;;;15.43;11.00;;;;;;;5.63;88.79;99979.81;4933699;29;20057;-77
2022/11/20 14:14:23;;;;;;;15.05;11.20;;;;;;;5.59;87.23;99963.53;4949861;29;20057;-77
2022/11/20 14:17:36;;;;;;;12.70;10.65;;;;;;;5.68;87.85;99963.16;4946247;29;20564;-77
2022/11/20 14:20:44;;;;;;;15.73;11.63;;;;;;;5.59;88.17;99961.78;4952011;29;20053;-78
2022/11/20 14:23:50;;;;;;;14.82;11.15;;;;;;;5.65;87.84;99957.22;4944395;29;20434;-78
2022/11/20 14:26:57;;;;;;;17.17;12.18;;;;;;;5.53;87.94;99954.25;4939600;29;20062;-79
2022/11/20 14:30:01;;;;;;;17.33;12.15;;;;;;;5.59;88.15;99953.16;4930706;29;20082;-79
2022/11/20 14:33:06;;;;;;;19.02;12.32;;;;;;;5.62;87.64;99957.38;4940946;29;20046;-78
2022/11/20 14:36:18;;;;;;;18.92;14.25;;;;;;;5.46;88.87;99946.78;4941069;29;20167;-79
2022/11/20 14:39:29;;;;;;;19.65;14.60;;;;;;;5.52;88.72;99947.38;4943363;29;20078;-79
2022/11/20 14:42:34;;;;;;;19.60;15.60;;;;;;;5.66;87.81;99941.63;4939078;29;20139;-77
2022/11/20 14:45:41;;;;;;;22.83;17.40;;;;;;;5.50;88.59;99943.16;4944957;29;20050;-78
2022/11/20 14:49:01;;;;;;;21.92;16.73;;;;;;;5.40;89.07;99931.47;4951237;29;20049;-79
2022/11/20 14:52:25;;;;;;;21.73;17.00;;;;;;;5.35;88.54;99929.06;4948677;29;20089;-78
2022/11/20 14:55:37;;;;;;;20.83;16.38;;;;;;;5.32;89.20;99930.00;4943394;29;20065;-82